createdAt,value
2018-06-27T00:01:16.416Z,2.03
2018-06-27T00:03:45.570Z,1.80
2018-06-27T00:06:15.258Z,1.90
2018-06-27T00:08:44.655Z,1.87
2018-06-27T00:11:14.150Z,2.20
2018-06-27T00:13:44.401Z,1.80
2018-06-27T00:16:14.048Z,2.00
2018-06-27T00:18:42.828Z,2.00
2018-06-27T00:21:12.614Z,2.23
2018-06-27T00:23:41.404Z,1.63
2018-06-27T00:26:10.165Z,2.23
2018-06-27T00:28:39.839Z,2.00
2018-06-27T00:31:08.581Z,2.47
2018-06-27T00:33:37.348Z,2.27
2018-06-27T00:36:06.207Z,2.80
2018-06-27T00:38:34.994Z,2.30
2018-06-27T00:41:03.999Z,2.80
2018-06-27T00:43:32.969Z,1.90
2018-06-27T00:46:01.789Z,2.53
2018-06-27T00:48:30.536Z,2.10
2018-06-27T00:50:59.635Z,2.50
2018-06-27T00:53:34.694Z,2.33
2018-06-27T00:56:04.640Z,2.57
2018-06-27T00:58:33.350Z,2.10
2018-06-27T01:01:02.117Z,2.50
2018-06-27T01:03:30.924Z,2.13
2018-06-27T01:06:00.527Z,2.53
2018-06-27T01:08:30.061Z,2.10
2018-06-27T01:10:59.548Z,1.87
2018-06-27T01:13:28.327Z,2.50
2018-06-27T01:15:57.898Z,2.00
2018-06-27T01:18:26.694Z,2.60
2018-06-27T01:20:55.436Z,2.20
2018-06-27T01:23:24.592Z,2.27
2018-06-27T01:25:53.383Z,2.23
2018-06-27T01:28:23.623Z,2.30
2018-06-27T01:30:52.781Z,2.50
2018-06-27T01:33:22.167Z,2.40
2018-06-27T01:35:51.160Z,2.50
2018-06-27T01:38:20.928Z,2.33
2018-06-27T01:40:51.031Z,2.30
2018-06-27T01:43:20.035Z,2.57
2018-06-27T01:45:48.794Z,2.40
2018-06-27T01:48:17.667Z,2.77
2018-06-27T01:50:47.302Z,2.70
2018-06-27T01:53:16.061Z,2.33
2018-06-27T01:55:45.492Z,2.40
2018-06-27T01:58:15.111Z,2.37
2018-06-27T02:00:43.864Z,2.70
2018-06-27T02:03:12.679Z,2.50
2018-06-27T02:05:42.308Z,2.93
2018-06-27T02:08:11.095Z,2.37
2018-06-27T02:10:40.646Z,3.17
2018-06-27T02:13:10.323Z,2.40
2018-06-27T02:15:40.413Z,3.27
2018-06-27T02:18:09.206Z,2.70
2018-06-27T02:20:37.982Z,2.70
2018-06-27T02:23:09.086Z,2.70
2018-06-27T02:25:38.196Z,2.70
2018-06-27T02:28:08.431Z,2.90
2018-06-27T02:30:37.243Z,2.77
2018-06-27T02:33:06.027Z,3.40
2018-06-27T02:35:34.859Z,2.80
2018-06-27T02:38:03.639Z,2.80
2018-06-27T02:40:33.097Z,3.00
2018-06-27T02:43:01.848Z,3.57
2018-06-27T02:45:30.618Z,2.60
2018-06-27T02:48:00.430Z,3.37
2018-06-27T02:50:29.194Z,2.90
2018-06-27T02:52:58.173Z,3.90
2018-06-27T02:55:27.805Z,2.90
2018-06-27T02:57:56.558Z,3.20
2018-06-27T03:00:25.374Z,2.50
2018-06-27T03:02:54.649Z,2.90
2018-06-27T03:05:24.366Z,2.93
2018-06-27T03:07:54.816Z,3.03
2018-06-27T03:10:24.634Z,2.40
2018-06-27T03:12:53.580Z,2.50
2018-06-27T03:15:23.238Z,2.50
2018-06-27T03:17:53.268Z,2.80
2018-06-27T03:20:22.307Z,2.30
2018-06-27T03:22:51.591Z,2.90
2018-06-27T03:25:20.495Z,2.33
2018-06-27T03:27:50.268Z,2.70
2018-06-27T03:30:19.064Z,2.37
2018-06-27T03:32:47.938Z,2.60
2018-06-27T03:35:16.770Z,2.30
2018-06-27T03:37:45.519Z,2.60
2018-06-27T03:40:15.052Z,2.40
2018-06-27T03:42:43.827Z,2.80
2018-06-27T03:45:12.658Z,2.60
2018-06-27T03:47:42.318Z,2.37
2018-06-27T03:50:11.110Z,2.60
2018-06-27T03:52:45.512Z,2.70
2018-06-27T03:55:15.160Z,2.97
2018-06-27T03:57:44.317Z,2.63
2018-06-27T04:00:13.073Z,2.80
2018-06-27T04:02:41.914Z,3.10
2018-06-27T04:05:11.189Z,3.37
2018-06-27T04:07:40.887Z,3.20
2018-06-27T04:10:11.635Z,2.80
2018-06-27T04:12:41.214Z,3.23
2018-06-27T04:15:10.644Z,3.30
2018-06-27T04:17:39.930Z,3.77
2018-06-27T04:20:08.842Z,2.67
2018-06-27T04:22:37.585Z,3.17
2018-06-27T04:25:06.413Z,2.87
2018-06-27T04:27:36.171Z,3.17
2018-06-27T04:30:05.379Z,2.77
2018-06-27T04:32:34.183Z,2.90
2018-06-27T04:35:02.990Z,2.80
2018-06-27T04:37:32.024Z,4.07
2018-06-27T04:40:01.476Z,2.90
2018-06-27T04:42:30.394Z,3.10
2018-06-27T04:45:00.173Z,2.90
2018-06-27T04:47:28.936Z,2.90
2018-06-27T04:49:58.775Z,2.70
2018-06-27T04:52:27.592Z,2.97
2018-06-27T04:54:56.396Z,3.03
2018-06-27T04:57:26.287Z,2.80
2018-06-27T04:59:55.119Z,3.70
2018-06-27T05:02:23.876Z,3.10
2018-06-27T05:04:52.900Z,2.90
2018-06-27T05:07:23.608Z,2.70
2018-06-27T05:09:53.398Z,3.00
2018-06-27T05:12:23.023Z,3.00
2018-06-27T05:14:53.172Z,2.93
2018-06-27T05:17:23.011Z,2.63
2018-06-27T05:19:52.010Z,2.97
2018-06-27T05:22:20.954Z,2.70
2018-06-27T05:24:49.871Z,3.00
2018-06-27T05:27:19.234Z,2.90
2018-06-27T05:29:48.866Z,2.83
2018-06-27T05:32:17.774Z,2.60
2018-06-27T05:34:46.571Z,2.53
2018-06-27T05:37:15.357Z,2.63
2018-06-27T05:39:44.890Z,2.50
2018-06-27T05:42:14.327Z,2.67
2018-06-27T05:44:43.112Z,2.70
2018-06-27T05:47:11.865Z,2.60
2018-06-27T05:49:40.694Z,2.97
2018-06-27T05:52:09.534Z,3.07
2018-06-27T05:54:39.079Z,2.40
2018-06-27T05:57:08.986Z,3.13
2018-06-27T05:59:37.807Z,2.30
2018-06-27T06:02:06.738Z,3.13
2018-06-27T06:04:35.534Z,2.50
2018-06-27T06:07:04.904Z,2.67
2018-06-27T06:09:34.433Z,2.40
2018-06-27T06:12:03.834Z,3.20
2018-06-27T06:14:33.566Z,2.30
2018-06-27T06:17:03.278Z,2.70
2018-06-27T06:19:32.041Z,2.70
2018-06-27T06:22:00.855Z,2.97
2018-06-27T06:24:29.721Z,2.60
2018-06-27T06:26:58.459Z,3.77
2018-06-27T06:29:27.882Z,2.37
2018-06-27T06:31:56.655Z,3.10
2018-06-27T06:34:25.517Z,2.87
2018-06-27T06:36:54.347Z,3.17
2018-06-27T06:39:23.797Z,2.63
2018-06-27T06:41:53.556Z,3.13
2018-06-27T06:44:22.633Z,2.57
2018-06-27T06:46:52.027Z,3.10
2018-06-27T06:49:21.227Z,2.47
2018-06-27T06:51:51.065Z,3.10
2018-06-27T06:54:20.073Z,2.50
2018-06-27T06:56:49.791Z,2.90
2018-06-27T06:59:18.631Z,2.47
2018-06-27T07:01:47.464Z,2.57
2018-06-27T07:04:16.242Z,2.50
2018-06-27T07:06:45.850Z,2.80
2018-06-27T07:09:15.742Z,2.67
2018-06-27T07:11:45.227Z,2.60
2018-06-27T07:14:14.705Z,2.70
2018-06-27T07:16:44.326Z,2.60
2018-06-27T07:19:13.087Z,2.20
2018-06-27T07:21:41.893Z,2.50
2018-06-27T07:24:10.726Z,2.57
2018-06-27T07:26:39.488Z,2.60
2018-06-27T07:29:08.984Z,2.87
2018-06-27T07:31:37.786Z,2.50
2018-06-27T07:34:06.604Z,2.77
2018-06-27T07:36:36.535Z,2.30
2018-06-27T07:39:08.219Z,2.47
2018-06-27T07:41:37.995Z,2.30
2018-06-27T07:44:06.870Z,2.30
2018-06-27T07:46:35.683Z,2.20
2018-06-27T07:49:04.499Z,2.30
2018-06-27T07:51:33.347Z,2.30
2018-06-27T07:54:02.252Z,1.90
2018-06-27T07:56:32.074Z,2.20
2018-06-27T07:59:01.230Z,1.80
2018-06-27T08:01:30.024Z,1.90
2018-06-27T08:03:58.823Z,1.97
2018-06-27T08:06:32.319Z,2.10
2018-06-27T08:09:01.768Z,2.10
2018-06-27T08:11:31.072Z,1.60
2018-06-27T08:14:00.582Z,2.37
2018-06-27T08:16:29.867Z,1.60
2018-06-27T08:18:58.690Z,1.90
2018-06-27T08:21:27.471Z,1.60
2018-06-27T08:23:56.255Z,2.37
2018-06-27T08:26:25.226Z,1.90
2018-06-27T08:28:54.707Z,2.03
2018-06-27T08:31:24.059Z,2.00
2018-06-27T08:33:54.308Z,2.73
2018-06-27T08:36:23.769Z,2.00
2018-06-27T08:38:53.630Z,1.93
2018-06-27T08:41:23.288Z,1.70
2018-06-27T08:43:53.131Z,2.00
2018-06-27T08:46:24.067Z,1.90
2018-06-27T08:48:53.054Z,2.23
2018-06-27T08:51:22.970Z,1.80
2018-06-27T08:53:52.239Z,2.50
2018-06-27T08:56:22.866Z,1.50
2018-06-27T08:58:51.876Z,2.00
2018-06-27T09:01:22.007Z,1.70
2018-06-27T09:03:52.015Z,2.00
2018-06-27T09:06:22.342Z,1.60
2018-06-27T09:08:52.175Z,1.63
2018-06-27T09:11:22.889Z,1.57
2018-06-27T09:13:53.811Z,2.10
2018-06-27T09:16:24.168Z,1.50
2018-06-27T09:18:54.012Z,1.80
2018-06-27T09:21:23.058Z,1.57
2018-06-27T09:23:52.917Z,2.30
2018-06-27T09:26:22.470Z,1.57
2018-06-27T09:28:51.482Z,2.00
2018-06-27T09:31:22.686Z,1.63
2018-06-27T09:33:52.016Z,2.43
2018-06-27T09:36:20.863Z,1.50
2018-06-27T09:38:49.829Z,1.77
2018-06-27T09:41:19.290Z,1.40
2018-06-27T09:43:48.450Z,1.97
2018-06-27T09:46:17.242Z,2.17
2018-06-27T09:48:46.148Z,1.70
2018-06-27T09:51:15.096Z,1.67
2018-06-27T09:53:44.173Z,2.20
2018-06-27T09:56:13.739Z,1.80
2018-06-27T09:58:42.561Z,1.50
2018-06-27T10:01:11.311Z,1.37
2018-06-27T10:03:41.176Z,1.53
2018-06-27T10:06:10.583Z,1.70
2018-06-27T10:08:39.986Z,1.80
2018-06-27T10:11:09.683Z,1.90
2018-06-27T10:13:40.626Z,1.60
2018-06-27T10:16:10.123Z,1.80
2018-06-27T10:18:38.946Z,1.80
2018-06-27T10:21:07.722Z,1.80
2018-06-27T10:23:37.103Z,1.50
2018-06-27T10:26:06.063Z,1.70
2018-06-27T10:28:37.102Z,1.43
2018-06-27T10:31:05.932Z,1.80
2018-06-27T10:33:36.248Z,1.60
2018-06-27T10:36:05.226Z,1.93
2018-06-27T10:38:34.054Z,1.70
2018-06-27T10:41:03.471Z,2.00
2018-06-27T10:43:32.275Z,1.50
2018-06-27T10:46:01.070Z,1.50
2018-06-27T10:48:29.910Z,1.40
2018-06-27T10:50:58.699Z,1.50
2018-06-27T10:53:27.530Z,1.70
2018-06-27T10:55:57.011Z,1.40
2018-06-27T10:58:25.796Z,1.93
2018-06-27T11:00:54.548Z,1.30
2018-06-27T11:03:24.363Z,1.90
2018-06-27T11:05:54.139Z,1.83
2018-06-27T11:08:23.934Z,1.93
2018-06-27T11:10:53.937Z,1.17
2018-06-27T11:13:24.288Z,2.07
2018-06-27T11:15:53.994Z,1.53
2018-06-27T11:18:23.144Z,1.97
2018-06-27T11:20:52.123Z,1.40
2018-06-27T11:23:21.140Z,2.03
2018-06-27T11:25:49.951Z,1.23
2018-06-27T11:28:19.509Z,1.77
2018-06-27T11:30:48.267Z,1.43
2018-06-27T11:33:17.084Z,2.00
2018-06-27T11:35:45.895Z,1.40
2018-06-27T11:38:14.643Z,1.87
2018-06-27T11:40:44.043Z,1.40
2018-06-27T11:43:14.243Z,2.10
2018-06-27T11:45:42.943Z,1.53
2018-06-27T11:48:11.739Z,1.50
2018-06-27T11:50:40.500Z,1.20
2018-06-27T11:53:09.727Z,1.63
2018-06-27T11:55:39.542Z,1.20
2018-06-27T11:58:08.422Z,1.50
2018-06-27T12:00:37.191Z,1.30
2018-06-27T12:03:06.894Z,1.53
2018-06-27T12:05:36.389Z,1.27
2018-06-27T12:08:05.170Z,1.37
2018-06-27T12:10:34.477Z,1.13
2018-06-27T12:13:03.501Z,1.33
2018-06-27T12:15:33.067Z,1.30
2018-06-27T12:18:01.836Z,1.20
2018-06-27T12:20:30.567Z,1.30
2018-06-27T12:22:59.462Z,1.40
2018-06-27T12:25:29.036Z,1.30
2018-06-27T12:27:57.855Z,1.10
2018-06-27T12:30:26.609Z,1.50
2018-06-27T12:32:55.570Z,1.10
2018-06-27T12:35:24.669Z,1.40
2018-06-27T12:37:54.307Z,1.10
2018-06-27T12:40:24.431Z,1.37
2018-06-27T12:42:54.305Z,1.00
2018-06-27T12:45:23.322Z,1.43
2018-06-27T12:47:52.336Z,1.10
2018-06-27T12:50:21.151Z,1.60
2018-06-27T12:52:49.939Z,1.10
2018-06-27T12:55:19.494Z,1.30
2018-06-27T12:57:48.251Z,1.10
2018-06-27T13:00:16.996Z,1.50
2018-06-27T13:02:46.595Z,0.80
2018-06-27T13:05:17.138Z,1.37
2018-06-27T13:07:45.870Z,1.03
2018-06-27T13:10:15.648Z,2.30
2018-06-27T13:12:44.389Z,1.17
2018-06-27T13:15:14.030Z,1.30
2018-06-27T13:17:43.849Z,1.43
2018-06-27T13:20:12.626Z,1.20
2018-06-27T13:22:42.006Z,1.20
2018-06-27T13:25:10.748Z,1.03
2018-06-27T13:28:42.603Z,1.27
2018-06-27T13:31:11.342Z,1.30
2018-06-27T13:33:40.189Z,1.23
2018-06-27T13:36:09.050Z,1.10
2018-06-27T13:38:37.911Z,1.13
2018-06-27T13:41:07.467Z,1.20
2018-06-27T13:43:36.344Z,1.17
2018-06-27T13:46:05.329Z,1.20
2018-06-27T13:48:34.378Z,1.17
2018-06-27T13:51:03.124Z,1.43
2018-06-27T13:53:32.083Z,1.00
2018-06-27T13:56:01.718Z,1.03
2018-06-27T13:58:30.524Z,1.10
2018-06-27T14:00:59.313Z,1.20
2018-06-27T14:03:28.978Z,1.20
2018-06-27T14:05:58.311Z,1.13
2018-06-27T14:08:27.687Z,1.00
2018-06-27T14:10:57.001Z,1.20
2018-06-27T14:13:26.419Z,1.10
2018-06-27T14:15:56.212Z,1.20
2018-06-27T14:18:25.364Z,1.00
2018-06-27T14:20:55.120Z,1.43
2018-06-27T14:23:24.191Z,1.00
2018-06-27T14:25:53.185Z,1.30
2018-06-27T14:28:22.001Z,1.17
2018-06-27T14:30:50.851Z,1.40
2018-06-27T14:33:19.752Z,0.97
2018-06-27T14:35:48.547Z,1.17
2018-06-27T14:38:17.295Z,1.10
2018-06-27T14:40:47.363Z,1.10
2018-06-27T14:43:16.831Z,1.20
2018-06-27T14:45:45.582Z,1.30
2018-06-27T14:48:14.428Z,1.07
2018-06-27T14:50:43.672Z,1.70
2018-06-27T14:53:12.421Z,1.10
2018-06-27T14:55:41.990Z,1.30
2018-06-27T14:58:10.887Z,1.10
2018-06-27T15:00:40.092Z,1.80
2018-06-27T15:03:09.620Z,1.47
2018-06-27T15:05:39.222Z,1.50
2018-06-27T15:08:09.038Z,1.00
2018-06-27T15:10:38.525Z,1.40
2018-06-27T15:13:07.272Z,1.17
2018-06-27T15:15:36.974Z,1.10
2018-06-27T15:18:06.554Z,1.10
2018-06-27T15:20:35.651Z,1.30
2018-06-27T15:23:04.455Z,1.20
2018-06-27T15:25:33.300Z,1.70
2018-06-27T15:28:02.071Z,1.47
2018-06-27T15:30:30.892Z,1.40
2018-06-27T15:32:59.682Z,1.47
2018-06-27T15:35:28.553Z,1.30
2018-06-27T15:37:57.292Z,1.27
2018-06-27T15:40:27.251Z,1.20
2018-06-27T15:42:56.864Z,1.30
2018-06-27T15:45:25.850Z,1.30
2018-06-27T15:47:55.742Z,1.70
2018-06-27T15:50:25.088Z,1.20
2018-06-27T15:52:54.258Z,1.30
2018-06-27T15:55:23.927Z,1.33
2018-06-27T15:57:53.206Z,1.57
2018-06-27T16:00:22.140Z,1.20
2018-06-27T16:02:51.491Z,1.50
2018-06-27T16:05:21.343Z,1.20
2018-06-27T16:07:50.109Z,1.80
2018-06-27T16:10:19.733Z,1.20
2018-06-27T16:12:48.510Z,1.70
2018-06-27T16:15:17.958Z,1.37
2018-06-27T16:17:47.279Z,1.60
2018-06-27T16:20:16.030Z,1.05
2018-06-27T16:22:44.833Z,2.00
2018-06-27T16:25:13.652Z,1.20
2018-06-27T16:27:42.467Z,1.50
2018-06-27T16:30:11.336Z,1.15
2018-06-27T16:32:40.198Z,1.52
2018-06-27T16:35:08.992Z,1.12
2018-06-27T16:37:37.778Z,1.40
2018-06-27T16:40:07.785Z,1.07
2018-06-27T16:42:37.052Z,1.40
2018-06-27T16:45:06.239Z,1.40
2018-06-27T16:47:35.015Z,1.40
2018-06-27T16:50:04.011Z,1.30
2018-06-27T16:52:32.863Z,1.50
2018-06-27T16:55:02.292Z,1.42
2018-06-27T16:57:31.823Z,1.20
2018-06-27T17:00:00.650Z,1.15
2018-06-27T17:02:30.268Z,1.50
2018-06-27T17:04:59.634Z,1.15
2018-06-27T17:07:28.747Z,1.50
2018-06-27T17:09:58.618Z,1.12
2018-06-27T17:12:28.142Z,1.32
2018-06-27T17:14:57.502Z,1.40
2018-06-27T17:17:26.925Z,1.10
2018-06-27T17:19:55.755Z,1.20
2018-06-27T17:22:24.902Z,1.20
2018-06-27T17:24:54.297Z,1.42
2018-06-27T17:27:23.259Z,1.85
2018-06-27T17:29:52.525Z,1.90
2018-06-27T17:32:21.431Z,1.85
2018-06-27T17:34:50.252Z,2.92
2018-06-27T17:37:19.023Z,15.00
2018-06-27T17:39:48.666Z,7.92
2018-06-27T17:42:18.102Z,4.75
2018-06-27T17:44:46.923Z,2.50
2018-06-27T17:47:15.639Z,2.22
2018-06-27T17:49:44.439Z,2.17
2018-06-27T17:52:13.216Z,1.90
2018-06-27T17:54:42.180Z,1.80
2018-06-27T17:57:12.152Z,1.97
2018-06-27T17:59:41.706Z,1.60
2018-06-27T18:02:11.338Z,1.90
2018-06-27T18:04:40.106Z,1.50
2018-06-27T18:07:09.470Z,1.80
2018-06-27T18:09:38.962Z,1.90
2018-06-27T18:12:07.795Z,1.80
2018-06-27T18:14:37.341Z,2.20
2018-06-27T18:17:06.710Z,1.40
2018-06-27T18:19:35.503Z,1.80
2018-06-27T18:22:04.338Z,1.80
2018-06-27T18:24:33.427Z,2.60
2018-06-27T18:27:02.200Z,1.73
2018-06-27T18:29:31.305Z,1.97
2018-06-27T18:32:00.148Z,1.50
2018-06-27T18:34:29.667Z,1.53
2018-06-27T18:36:58.481Z,1.50
2018-06-27T18:39:28.224Z,2.03
2018-06-27T18:41:57.563Z,1.63
2018-06-27T18:44:26.399Z,1.47
2018-06-27T18:46:55.344Z,1.43
2018-06-27T18:49:24.752Z,1.40
2018-06-27T18:51:53.773Z,1.37
2018-06-27T18:54:22.929Z,1.50
2018-06-27T18:56:54.002Z,1.37
2018-06-27T18:59:23.342Z,1.40
2018-06-27T19:01:53.228Z,1.60
2018-06-27T19:04:22.455Z,1.37
2018-06-27T19:06:52.607Z,1.60
2018-06-27T19:09:22.487Z,1.47
2018-06-27T19:11:51.526Z,2.27
2018-06-27T19:14:20.808Z,1.57
2018-06-27T19:16:50.357Z,2.03
2018-06-27T19:19:19.157Z,1.37
2018-06-27T19:21:47.963Z,1.63
2018-06-27T19:24:16.834Z,1.50
2018-06-27T19:26:45.655Z,2.43
2018-06-27T19:29:14.658Z,1.53
2018-06-27T19:31:43.501Z,1.80
2018-06-27T19:34:12.268Z,1.93
2018-06-27T19:36:41.023Z,2.47
2018-06-27T19:39:11.653Z,1.90
2018-06-27T19:41:41.354Z,1.83
2018-06-27T19:44:10.665Z,1.67
2018-06-27T19:46:39.554Z,2.20
2018-06-27T19:49:08.397Z,1.60
2018-06-27T19:51:37.269Z,1.77
2018-06-27T19:54:06.214Z,1.90
2018-06-27T19:56:36.055Z,2.20
2018-06-27T19:59:05.051Z,2.10
2018-06-27T20:01:35.015Z,2.10
2018-06-27T20:04:03.816Z,1.90
2018-06-27T20:06:33.743Z,2.43
2018-06-27T20:09:03.468Z,1.93
2018-06-27T20:11:33.440Z,1.80
2018-06-27T20:14:03.172Z,2.00
2018-06-27T20:16:32.997Z,2.07
2018-06-27T20:19:01.746Z,1.67
2018-06-27T20:21:30.508Z,1.63
2018-06-27T20:23:59.271Z,1.67
2018-06-27T20:26:28.539Z,1.90
2018-06-27T20:28:57.449Z,1.60
2018-06-27T20:31:26.326Z,1.43
2018-06-27T20:33:55.243Z,1.30
2018-06-27T20:36:24.834Z,1.57
2018-06-27T20:38:53.832Z,1.40
2018-06-27T20:41:23.649Z,1.00
2018-06-27T20:43:52.708Z,1.30
2018-06-27T20:46:21.757Z,1.10
2018-06-27T20:48:50.624Z,1.57
2018-06-27T20:51:19.736Z,1.20
2018-06-27T20:53:50.000Z,1.57
2018-06-27T20:56:34.123Z,1.20
2018-06-27T20:59:02.939Z,1.57
2018-06-27T21:01:32.519Z,1.53
2018-06-27T21:04:02.202Z,1.30
2018-06-27T21:06:32.052Z,1.60
2018-06-27T21:09:01.952Z,1.20
2018-06-27T21:11:31.784Z,1.90
2018-06-27T21:14:01.439Z,1.40
2018-06-27T21:16:30.753Z,1.50
2018-06-27T21:18:59.568Z,1.17
2018-06-27T21:21:28.458Z,1.33
2018-06-27T21:23:57.232Z,1.10
2018-06-27T21:26:26.508Z,1.37
2018-06-27T21:28:55.821Z,1.70
2018-06-27T21:31:24.795Z,1.27
2018-06-27T21:33:53.816Z,1.43
2018-06-27T21:36:22.750Z,1.27
2018-06-27T21:38:51.700Z,1.60
2018-06-27T21:41:21.424Z,1.30
2018-06-27T21:43:50.246Z,1.70
2018-06-27T21:46:19.050Z,1.10
2018-06-27T21:48:47.921Z,1.40
2018-06-27T21:51:16.669Z,1.30
2018-06-27T21:53:45.780Z,1.27
2018-06-27T21:56:15.408Z,1.80
2018-06-27T21:58:44.151Z,1.40
2018-06-27T22:01:14.418Z,1.50
2018-06-27T22:03:44.285Z,1.43
2018-06-27T22:06:14.364Z,1.57
2018-06-27T22:08:43.917Z,1.20
2018-06-27T22:11:13.498Z,1.80
2018-06-27T22:13:43.252Z,1.60
2018-06-27T22:16:12.624Z,1.70
2018-06-27T22:18:41.386Z,1.53
2018-06-27T22:21:10.154Z,2.03
2018-06-27T22:23:39.036Z,1.60
2018-06-27T22:26:07.855Z,1.83
2018-06-27T22:28:36.722Z,1.33
2018-06-27T22:31:05.561Z,2.13
2018-06-27T22:33:34.334Z,1.60
2018-06-27T22:36:03.089Z,2.20
2018-06-27T22:38:31.858Z,1.90
2018-06-27T22:41:01.981Z,1.53
2018-06-27T22:43:30.786Z,2.23
2018-06-27T22:45:59.638Z,1.50
2018-06-27T22:48:28.492Z,2.00
2018-06-27T22:50:57.230Z,1.60
2018-06-27T22:53:26.127Z,1.80
2018-06-27T22:55:55.914Z,1.50
2018-06-27T22:58:25.652Z,2.70
2018-06-27T23:00:54.700Z,1.80
2018-06-27T23:03:24.763Z,1.90
2018-06-27T23:05:54.598Z,1.43
2018-06-27T23:08:24.422Z,2.20
2018-06-27T23:10:54.064Z,1.67
2018-06-27T23:13:24.002Z,2.10
2018-06-27T23:15:53.610Z,1.70
2018-06-27T23:18:22.603Z,2.20
2018-06-27T23:20:51.348Z,1.80
2018-06-27T23:23:20.138Z,2.00
2018-06-27T23:25:48.887Z,1.67
2018-06-27T23:28:17.918Z,2.10
2018-06-27T23:30:46.691Z,1.90
2018-06-27T23:33:15.482Z,1.90
2018-06-27T23:35:44.246Z,1.80
2018-06-27T23:38:13.058Z,1.90
2018-06-27T23:40:42.639Z,1.83
2018-06-27T23:43:11.430Z,1.83
2018-06-27T23:45:40.187Z,1.60
2018-06-27T23:48:09.015Z,2.00
2018-06-27T23:50:37.794Z,1.97
2018-06-27T23:53:06.720Z,1.73
2018-06-27T23:55:36.466Z,2.10
2018-06-27T23:58:06.277Z,1.70
